Harper Woods, Michigan
Current Conditions -  °F | °C
As of 12:15 PM on Thursday 18 Dec 2014 (Local Time) from KDET Reporting Station
Overcast Overcast  
Wind Chill: 28°   Ceiling: 1300
Heat Index: 33°   Visibility: 8mi
Dew Point: 27°   Wind: 6mph
Humidity: 78%   Direction: 290°WNW
Pressure: 30.19"   Gusts: NA
Location:  42.43°N, 82.92°W
Report Text: KDET 181715Z 29005KT 8SM BKN013 BKN022 OVC028 01/M03 A3019 RMK AO2 T00061028
Loading
Personal Weather Stations






























Interactive Weather Map New forecast layout! Learn more

10-Day Weather Forecast

Advertisements
Track Severe Weather on mobile